MPTO Airport Information

Runway Information
Runway 03L Length 8800 ft width 200 ft
Elevation 56 ft Threshold 0 ft Heading 31
Runway 21R Length 8800 ft Width 200 ft
Elevation 135 ft Threshold 0 ft Heading 211
Runway 03R Length 10006 ft width 148 ft
Elevation 22 ft Threshold 0 ft Heading 30
Runway 21L Length 10006 ft Width 148 ft
Elevation 36 ft Threshold 0 ft Heading 210
Airport Frequencies
Type ACC Name PANAMA CON Frequency 133 MHZ
Type ACC Name PANAMA CON Frequency 133.3 MHZ
Type APP Name PANAMA APP Frequency 119.7 MHZ
Type CLD Name CLNC DEL Frequency 129.8 MHZ
Type GND Name GND Frequency 121.9 MHZ
Type MISC Name VFR ADVSY Frequency 121.2 MHZ
Type TWR Name TWR Frequency 118.1 MHZ
Airport Navaids
Type NDB Name Tocumen Frequency 326 KHZ
Type VOR-DME Name Taboga Island Frequency 110000 KHZ
Type NDB Name Taboga Island Frequency 311 KHZ
Type VOR-DME Name Tocumen Frequency 117100 KHZ
Airport Weather Information & NOTAM
ADDS - METARS form results

(1531 UTC 21 April 2018)
 
METAR text: MPTO 211500Z 00000KT 9000 SCT016 BKN100 30/25 Q1010 NOSIG
Conditions at: MPTO (TOCUMEN , PA) observed 1500 UTC 21 April 2018
Temperature: 30.0°C (86°F)
Dewpoint: 25.0°C (77°F) [RH = 75%]
Pressure (altimeter): 29.82 inches Hg (1010.0 mb)
Winds: calm
Visibility: 6 miles (9 km)
Ceiling: 10000 feet AGL
Clouds: scattered clouds at 1600 feet AGL
broken clouds at 10000 feet AGL
Weather: no significant weather observed at this time